Airfield :
LOGIN :

Register | Disclaimer

   EN    FR    IT 

 










Legend :    VFR   Marginal VFR   IFR   Intensive IFR   Very Intensive IFR
Visi :
Ceiling :
>= 8 km
>= 3000ft
5 to 8 km
1000 to 3000 ft
1500m to 5 km
500 to 1000 ft
800 to 1500m
200 to 500 ft
< 800m
< 200 ft
Symbols :   Thunderstorms  Fog  Heavy snow  Heavy precipitations  Wind > 20 kt
SIGMETs :     Misc.  Thunderstorms  Icing  Turbulence  Mountain Waves  Volcanic Ashes







- Airport Elevation : 1300 ft
- IATA code : LIG
- Download approach charts


LFBL - Limoges

CURRENT METAR :
  • 262330Z AUTO 17004KT CAVOK 18/15 Q1011 TEMPO BKN006

EXPIRED METARs :
  • 262300Z AUTO 19005KT CAVOK 19/15 Q1011 NOSIG
  • 262230Z AUTO 21004KT CAVOK 19/15 Q1011 NOSIG
  • 262200Z AUTO VRB02KT CAVOK 19/15 Q1011 NOSIG
  • 262130Z AUTO 25004KT CAVOK 19/15 Q1011 NOSIG
  • 262100Z AUTO 25004KT CAVOK 19/15 Q1011 NOSIG

TAF TAF LFBL
Valid from the 27 at 00:00 until the 28 at 00:00 UTC


262300Z 2700/2724 VRB03KT CAVOK
TEMPO 2701/2707 BKN006
BECMG 2707/2708 22008KT
BECMG 2708/2710 BKN020
BECMG 2711/2713 BKN040
TEMPO 2715/2724 SHRA SCT040CB BKN080
TEMPO 2717/2719 25015G35KT 4000 TSRA BKN040CB
PROB40
TEMPO 2717/2719 25020G45KT 1500 TSRAGR BKN040CB
ATIS : +33 5 55 48 40 37
No reported NOTAMs for that airfield.



MET'MAP, your aeronautical weather chart ! - Copyright ORBIFLY December 2007 - Disclaimer

ORBIFLY MET'MAP TEAM :

Programming & Development : Alexandra Zaïnal
Concept & Development : Baudouin d'Aumeries
Co-Development & Prog : Marc-Olivier Méhu
Technical & hardware support : Manuel Goepfert

Contact : metmap@orbifly.com




SOURCES & CREDITS :

   NOAA